createdAt,value
2022-12-01T05:01:23.584Z,101126.44
2022-12-01T05:04:26.713Z,101133.34
2022-12-01T05:07:29.306Z,101127.31
2022-12-01T05:10:36.351Z,101115.09
2022-12-01T05:13:40.578Z,101108.78
2022-12-01T05:16:43.478Z,101103.56
2022-12-01T05:20:24.521Z,101112.00
2022-12-01T05:23:29.433Z,101110.56
2022-12-01T05:26:31.993Z,101110.25
2022-12-01T05:29:35.894Z,101114.81
2022-12-01T05:32:38.407Z,101110.81
2022-12-01T05:35:41.598Z,101117.31
2022-12-01T05:38:44.073Z,101111.56
2022-12-01T05:41:47.243Z,101118.53
2022-12-01T05:44:49.745Z,101111.75
2022-12-01T05:47:57.015Z,101113.81
2022-12-01T05:50:59.518Z,101113.91
2022-12-01T05:54:02.322Z,101117.84
2022-12-01T05:57:04.783Z,101118.69
2022-12-01T06:00:08.476Z,101123.25
2022-12-01T06:03:14.552Z,101116.31
2022-12-01T06:06:17.575Z,101120.84
2022-12-01T06:09:20.057Z,101124.34
2022-12-01T06:12:22.853Z,101130.62
2022-12-01T06:15:25.937Z,101143.25
2022-12-01T06:18:31.954Z,101145.87
2022-12-01T06:21:34.450Z,101138.06
2022-12-01T06:24:37.204Z,101137.22
2022-12-01T06:27:39.694Z,101138.06
2022-12-01T06:30:42.919Z,101140.22
2022-12-01T06:33:45.566Z,101139.00
2022-12-01T06:36:48.551Z,101141.00
2022-12-01T06:39:51.386Z,101137.88
2022-12-01T06:42:54.507Z,101134.47
2022-12-01T06:46:01.767Z,101130.88
2022-12-01T06:49:05.285Z,101138.09
2022-12-01T06:52:07.811Z,101137.72
2022-12-01T06:55:10.583Z,101132.81
2022-12-01T06:58:13.971Z,101136.00
2022-12-01T07:01:17.733Z,101134.12
2022-12-01T07:04:20.746Z,101137.25
2022-12-01T07:07:24.313Z,101130.53
2022-12-01T07:10:27.906Z,101131.22
2022-12-01T07:13:33.714Z,101139.25
2022-12-01T07:16:37.414Z,101139.34
2022-12-01T07:19:40.691Z,101141.87
2022-12-01T07:22:43.253Z,101139.09
2022-12-01T07:25:46.058Z,101147.03
2022-12-01T07:28:48.661Z,101141.91
2022-12-01T07:31:51.484Z,101149.47
2022-12-01T07:34:54.006Z,101148.53
2022-12-01T07:37:57.076Z,101147.94
2022-12-01T07:41:07.931Z,101147.03
2022-12-01T07:44:11.324Z,101156.75
2022-12-01T07:47:14.572Z,101141.81
2022-12-01T07:50:17.412Z,101142.47
2022-12-01T07:53:20.003Z,101138.13
2022-12-01T07:56:24.077Z,101137.53
2022-12-01T07:59:26.514Z,101144.53
2022-12-01T08:02:29.347Z,101154.34
2022-12-01T08:05:32.166Z,101148.72
2022-12-01T08:08:36.504Z,101161.38
2022-12-01T08:11:39.467Z,101162.66
2022-12-01T08:14:42.230Z,101159.47
2022-12-01T08:17:45.068Z,101159.34
2022-12-01T08:20:47.570Z,101160.16
2022-12-01T08:23:57.906Z,101149.50
2022-12-01T08:27:00.242Z,101138.53
2022-12-01T08:30:02.939Z,101145.44
2022-12-01T08:33:05.980Z,101139.22
2022-12-01T08:36:09.491Z,101148.03
2022-12-01T08:39:11.973Z,101146.28
2022-12-01T08:42:14.819Z,101152.06
2022-12-01T08:45:17.449Z,101150.28
2022-12-01T08:48:20.515Z,101159.28
2022-12-01T08:51:23.057Z,101159.09
2022-12-01T08:54:25.901Z,101158.25
2022-12-01T08:57:31.599Z,101161.47
2022-12-01T09:00:34.492Z,101156.03
2022-12-01T09:03:38.569Z,101151.56
2022-12-01T09:06:44.259Z,101147.53
2022-12-01T09:09:47.191Z,101145.72
2022-12-01T09:12:50.149Z,101152.31
2022-12-01T09:16:14.260Z,101146.50
2022-12-01T09:19:24.262Z,101144.78
2022-12-01T09:22:27.312Z,101145.16
2022-12-01T09:25:30.916Z,101136.53
2022-12-01T09:28:34.032Z,101133.78
2022-12-01T09:31:37.710Z,101127.94
2022-12-01T09:34:40.394Z,101136.78
2022-12-01T09:37:43.183Z,101126.22
2022-12-01T09:40:46.377Z,101129.28
2022-12-01T09:44:02.241Z,101133.97
2022-12-01T09:47:20.343Z,101128.63
2022-12-01T09:50:25.546Z,101117.59
2022-12-01T09:53:31.336Z,101123.09
2022-12-01T09:56:42.895Z,101119.47
2022-12-01T09:59:46.765Z,101122.69
2022-12-01T10:03:06.735Z,101108.81
2022-12-01T10:06:29.146Z,101109.09
2022-12-01T10:09:53.653Z,101105.66
2022-12-01T10:12:56.971Z,101108.69
2022-12-01T10:16:08.456Z,101101.78
2022-12-01T10:19:32.941Z,101106.66
2022-12-01T10:22:45.662Z,101105.78
2022-12-01T10:25:59.878Z,101101.44
2022-12-01T10:29:43.817Z,101104.25
2022-12-01T10:32:53.002Z,101092.47
2022-12-01T10:35:55.591Z,101095.03
2022-12-01T10:38:58.576Z,101085.75
2022-12-01T10:42:08.096Z,101089.22
2022-12-01T10:45:26.474Z,101090.19
2022-12-01T10:48:29.186Z,101076.72
2022-12-01T10:51:47.103Z,101073.22
2022-12-01T10:54:49.626Z,101074.69
2022-12-01T10:57:55.603Z,101072.06
2022-12-01T11:01:04.683Z,101070.22
2022-12-01T11:04:42.585Z,101069.50
2022-12-01T11:07:49.500Z,101063.31
2022-12-01T11:10:52.390Z,101072.06
2022-12-01T11:13:56.261Z,101062.19
2022-12-01T11:17:16.308Z,101057.91
2022-12-01T11:20:26.456Z,101063.44
2022-12-01T11:23:29.879Z,101048.78
2022-12-01T11:26:34.594Z,101042.59
2022-12-01T11:29:39.678Z,101044.31
2022-12-01T11:32:56.975Z,101041.72
2022-12-01T11:35:59.900Z,101043.09
2022-12-01T11:39:03.448Z,101039.47
2022-12-01T11:42:13.037Z,101036.97
2022-12-01T11:45:23.504Z,101037.81
2022-12-01T11:48:29.578Z,101032.56
2022-12-01T11:51:37.772Z,101028.56
2022-12-01T11:54:55.885Z,101030.97
2022-12-01T11:58:05.616Z,101029.75
2022-12-01T12:01:32.652Z,101023.81
2022-12-01T12:05:14.195Z,101021.62
2022-12-01T12:08:43.632Z,101020.06
2022-12-01T12:11:57.566Z,101026.31
2022-12-01T12:15:15.536Z,101020.44
2022-12-01T12:18:36.926Z,101019.75
2022-12-01T12:21:49.684Z,101013.19
2022-12-01T12:24:52.408Z,101025.84
2022-12-01T12:28:25.430Z,101014.50
2022-12-01T12:31:59.273Z,101011.81
2022-12-01T12:35:16.325Z,101013.13
2022-12-01T12:39:03.502Z,101012.50
2022-12-01T12:42:37.547Z,101002.78
2022-12-01T12:46:11.394Z,101004.81
2022-12-01T12:49:23.052Z,101004.69
2022-12-01T12:52:33.365Z,101005.72
2022-12-01T12:55:47.187Z,101004.19
2022-12-01T12:59:07.371Z,101008.09
2022-12-01T13:02:20.228Z,101005.31
2022-12-01T13:05:43.606Z,101012.25
2022-12-01T13:08:52.751Z,101016.47
2022-12-01T13:12:02.043Z,101014.25
2022-12-01T13:15:16.884Z,101002.06
2022-12-01T13:18:22.686Z,101004.47
2022-12-01T13:21:25.852Z,101000.88
2022-12-01T13:24:31.291Z,100997.66
2022-12-01T13:27:40.341Z,100997.03
2022-12-01T13:30:59.088Z,101009.03
2022-12-01T13:34:04.786Z,100994.81
2022-12-01T13:37:09.765Z,101002.41
2022-12-01T13:40:21.268Z,101001.56
2022-12-01T13:43:25.657Z,101003.56
2022-12-01T13:46:31.393Z,101006.63
2022-12-01T13:49:42.508Z,101001.41
2022-12-01T13:52:50.343Z,101003.37
2022-12-01T13:56:03.573Z,101004.66
2022-12-01T13:59:40.139Z,100998.31
2022-12-01T14:02:43.409Z,100996.63
2022-12-01T14:05:52.289Z,101006.19
2022-12-01T14:09:02.476Z,100998.97
2022-12-01T14:12:26.970Z,101005.12
2022-12-01T14:15:31.604Z,100997.09
2022-12-01T14:18:37.777Z,100998.16
2022-12-01T14:21:47.312Z,100999.13
2022-12-01T14:24:53.235Z,100994.69
2022-12-01T14:27:59.966Z,100996.50
2022-12-01T14:31:05.015Z,100997.28
2022-12-01T14:34:19.937Z,101000.72
2022-12-01T14:37:27.332Z,100997.72
2022-12-01T14:40:30.336Z,100998.38
2022-12-01T14:43:52.166Z,101000.28
2022-12-01T14:47:04.444Z,100997.53
2022-12-01T14:50:11.844Z,100991.88
2022-12-01T14:53:23.899Z,100998.00
2022-12-01T14:56:28.470Z,100997.06
2022-12-01T14:59:31.056Z,101002.19
2022-12-01T15:02:39.252Z,101004.28
2022-12-01T15:05:44.402Z,101003.94
2022-12-01T15:09:31.378Z,101007.13
2022-12-01T15:12:27.678Z,101000.94
2022-12-01T15:15:30.494Z,101003.97
2022-12-01T15:18:36.924Z,101001.91
2022-12-01T15:21:39.762Z,101001.91
2022-12-01T15:24:43.367Z,101005.81
2022-12-01T15:27:46.425Z,101006.81
2022-12-01T15:30:54.615Z,101008.84
2022-12-01T15:33:57.853Z,101007.31
2022-12-01T15:37:04.238Z,101004.91
2022-12-01T15:40:59.713Z,101008.91
2022-12-01T15:43:40.061Z,101008.28
2022-12-01T15:46:43.948Z,101004.28
2022-12-01T15:49:50.391Z,101002.75
2022-12-01T15:52:53.661Z,101009.03
2022-12-01T15:55:59.204Z,101012.09
2022-12-01T15:59:23.673Z,101013.91
2022-12-01T16:02:32.092Z,101006.75
2022-12-01T16:05:35.963Z,101005.03
2022-12-01T16:08:38.954Z,101014.38
2022-12-01T16:12:06.321Z,101014.75
2022-12-01T16:15:18.656Z,101018.50
2022-12-01T16:18:55.621Z,101014.25
2022-12-01T16:22:17.016Z,101013.78
2022-12-01T16:25:39.174Z,101015.59
2022-12-01T16:28:42.332Z,101017.06
2022-12-01T16:32:12.733Z,101012.81
2022-12-01T16:35:23.668Z,101010.41
2022-12-01T16:38:28.885Z,101021.41
2022-12-01T16:41:41.209Z,101016.22
2022-12-01T16:44:46.456Z,101024.44
2022-12-01T16:47:49.550Z,101011.47
2022-12-01T16:50:53.798Z,101020.56
2022-12-01T16:53:56.342Z,101014.72
2022-12-01T16:56:59.140Z,101016.69
